^^
Station Historical Data
Daily Summary for November 19, 2017 Units:  Metric    English   Both
« Previous Day
Next Day »
Daily Weekly Monthly Yearly Custom
  High: Low: Average:
Temperature: 37.8 °C 14.3 °C 20.9 °C
Dew Point: 0.7 °C -27.8 °C -3 °C
Humidity: 37% 1% 23%
Wind Speed: 27.4km/h 0km/h 4.8km/h
Wind Gust: 30.6km/h - -
Wind- - SW
Pressure: 1010 hPa 1001.6 hPa -
Precipitation: 0 mm    
Historical Graphs
 
 
Tabular Data for November 19, 2017
Time Temperature Dew Point Pressure Wind Wind Speed Wind Gust Humidity Rainfall Rate (Hourly) solar Conditions
00:04 21.9 °C -1.4 °C 1010 hPa SSW 11.1 km/h 12.9 km/h 21% 0 mm 0.0 W/m2
00:09 21.7 °C -1.6 °C 1010 hPa SSW 9.7 km/h 12.9 km/h 21% 0 mm 0.0 W/m2
00:19 21.5 °C -1.8 °C 1009.7 hPa SSW 11.1 km/h 14.5 km/h 21% 0 mm 0.0 W/m2
00:24 21.4 °C -1.8 °C 1009.7 hPa SSW 9.7 km/h 12.9 km/h 21% 0 mm 0.0 W/m2
00:29 21.3 °C -1.9 °C 1009.7 hPa SSW 9.7 km/h 12.9 km/h 21% 0 mm 0.0 W/m2
00:34 21.3 °C -1.9 °C 1009.7 hPa SSW 11.1 km/h 11.3 km/h 21% 0 mm 0.0 W/m2
00:39 21.1 °C -1.5 °C 1009.7 hPa SSW 13 km/h 13 km/h 22% 0 mm 0.0 W/m2
00:49 20.8 °C -1.7 °C 1009.7 hPa SSW 7.9 km/h 9.7 km/h 22% 0 mm 0.0 W/m2
00:54 20.6 °C -1.3 °C 1009.7 hPa SSW 9.7 km/h 11.3 km/h 23% 0 mm 0.0 W/m2
00:59 20.4 °C -1.4 °C 1009.4 hPa SSW 9.7 km/h 9.7 km/h 23% 0 mm 0.0 W/m2
01:04 20.2 °C -1.6 °C 1009.4 hPa SSW 6.4 km/h 8 km/h 23% 0 mm 0.0 W/m2
01:09 20.1 °C -1.7 °C 1009.4 hPa SSW 7.9 km/h 8 km/h 23% 0 mm 0.0 W/m2
01:19 19.7 °C -1.4 °C 1009 hPa SSW 7.9 km/h 8 km/h 24% 0 mm 0.0 W/m2
01:25 19.7 °C -1.4 °C 1009 hPa SSW 7.9 km/h 8 km/h 24% 0 mm 0.0 W/m2
01:30 19.6 °C -1.5 °C 1009 hPa SSW 7.9 km/h 8 km/h 24% 0 mm 0.0 W/m2
01:35 19.4 °C -1.7 °C 1009 hPa SSW 7.9 km/h 9.7 km/h 24% 0 mm 0.0 W/m2
01:40 19.3 °C -1.8 °C 1009 hPa SSW 6.4 km/h 8 km/h 24% 0 mm 0.0 W/m2
01:45 19.2 °C -1.3 °C 1009 hPa SSW 4.7 km/h 6.4 km/h 25% 0 mm 0.0 W/m2
01:50 19.1 °C -1.4 °C 1009 hPa SSW 6.4 km/h 8 km/h 25% 0 mm 0.0 W/m2
01:55 18.9 °C -1.6 °C 1009 hPa SSW 1.4 km/h 6.4 km/h 25% 0 mm 0.0 W/m2
02:00 18.7 °C -1.7 °C 1009 hPa Calm     25% 0 mm 0.0 W/m2
02:06 18.6 °C -1.8 °C 1009 hPa Calm     25% 0 mm 0.0 W/m2
02:11 18.3 °C -1.5 °C 1009 hPa Calm     26% 0 mm 0.0 W/m2
02:21 17.7 °C -1.5 °C 1009 hPa Calm     27% 0 mm 0.0 W/m2
02:26 17.4 °C -1.8 °C 1009 hPa Calm     27% 0 mm 0.0 W/m2
02:31 17.3 °C -1.9 °C 1009 hPa Calm     27% 0 mm 0.0 W/m2
02:42 16.9 °C -2.2 °C 1009 hPa Calm     27% 0 mm 0.0 W/m2
02:52 16.6 °C -2 °C 1008.7 hPa Calm     28% 0 mm 0.0 W/m2
02:58 16.4 °C -2.2 °C 1008.7 hPa Calm     28% 0 mm 0.0 W/m2
03:03 16.4 °C -2.2 °C 1008.7 hPa Calm     28% 0 mm 0.0 W/m2
03:08 16.7 °C -1.9 °C 1008.7 hPa Calm     28% 0 mm 0.0 W/m2
03:13 16.9 °C -2.2 °C 1008.7 hPa Calm     27% 0 mm 0.0 W/m2
03:19 16.7 °C -1.9 °C 1008.7 hPa Calm     28% 0 mm 0.0 W/m2
03:29 16.4 °C -2.2 °C 1008.7 hPa Calm     28% 0 mm 0.0 W/m2
03:34 16.3 °C -2.3 °C 1008.4 hPa Calm     28% 0 mm 0.0 W/m2
03:39 16.1 °C -1.9 °C 1008.4 hPa Calm     29% 0 mm 0.0 W/m2
03:44 16.1 °C -1.9 °C 1008.4 hPa Calm     29% 0 mm 0.0 W/m2
03:49 16 °C -2 °C 1008.4 hPa Calm     29% 0 mm 0.0 W/m2
03:55 16.1 °C -1.9 °C 1008.4 hPa Calm     29% 0 mm 0.0 W/m2
04:00 16 °C -2 °C 1008.4 hPa Calm     29% 0 mm 0.0 W/m2
04:05 15.9 °C -1.7 °C 1008.4 hPa Calm     30% 0 mm 0.0 W/m2
04:10 15.8 °C -1.7 °C 1008.4 hPa Calm     30% 0 mm 0.0 W/m2
04:15 15.8 °C -1.7 °C 1008.4 hPa Calm     30% 0 mm 0.0 W/m2
04:21 15.7 °C -1.8 °C 1008.4 hPa Calm     30% 0 mm 0.0 W/m2
04:26 15.6 °C -1.5 °C 1008.4 hPa Calm     31% 0 mm 0.0 W/m2
04:31 15.5 °C -1.6 °C 1008.4 hPa Calm     31% 0 mm 0.0 W/m2
04:36 15.3 °C -1.3 °C 1008.4 hPa Calm     32% 0 mm 0.0 W/m2
04:41 15.1 °C -1.5 °C 1008.4 hPa Calm     32% 0 mm 0.0 W/m2
04:47 15.1 °C -1.5 °C 1008.4 hPa Calm     32% 0 mm 0.0 W/m2
04:52 15.1 °C -1.5 °C 1008.4 hPa Calm     32% 0 mm 0.0 W/m2
05:02 15.1 °C -1.1 °C 1008.4 hPa Calm     33% 0 mm 0.0 W/m2
05:07 15.1 °C -1.1 °C 1008.4 hPa Calm     33% 0 mm 0.0 W/m2
05:12 15.1 °C -1.1 °C 1008.4 hPa Calm     33% 0 mm 0.0 W/m2
05:22 15 °C -1.6 °C 1008.4 hPa Calm     32% 0 mm 0.0 W/m2
05:39 14.5 °C -0.8 °C 1008.4 hPa Calm     35% 0 mm 0.0 W/m2
05:44 14.4 °C -1.7 °C 1008.4 hPa Calm     33% 0 mm 0.0 W/m2
05:50 14.3 °C -0.2 °C 1008.7 hPa Calm     37% 0 mm 5.0 W/m2
05:55 14.4 °C -0.9 °C 1008.4 hPa Calm     35% 0 mm 7.0 W/m2
06:00 14.8 °C -0.9 °C 1008.7 hPa Calm     34% 0 mm 11.0 W/m2
06:05 15 °C -0.7 °C 1008.7 hPa Calm     34% 0 mm 14.0 W/m2
06:11 15.4 °C -0.8 °C 1008.7 hPa Calm     33% 0 mm 16.0 W/m2
06:17 15.8 °C -0.4 °C 1009 hPa Calm     33% 0 mm 26.0 W/m2
06:40 17.9 °C -0.4 °C 1009 hPa Calm     29% 0 mm 109.0 W/m2
07:00 19 °C 0.1 °C 1009 hPa Calm     28% 0 mm 174.0 W/m2
07:11 19.9 °C 0.3 °C 1009 hPa Calm     27% 0 mm 225.0 W/m2
08:07 22.6 °C -0.2 °C 1009.4 hPa Calm     22% 0 mm 408.0 W/m2
08:12 23.6 °C -2.1 °C 1009.4 hPa Calm     18% 0 mm 464.0 W/m2
08:23 24 °C -2.6 °C 1009 hPa Calm     17% 0 mm 501.0 W/m2
08:58 26 °C -4.6 °C 1009.4 hPa SSW 3.2 km/h 3.2 km/h 13% 0 mm 624.0 W/m2
09:16 26.1 °C -4.5 °C 1009 hPa Calm   6.4 km/h 13% 0 mm 666.0 W/m2
09:24 26.4 °C -4.2 °C 1009 hPa SSW 1.4 km/h 4.8 km/h 13% 0 mm 726.0 W/m2
09:30 26.6 °C -4.1 °C 1009 hPa SSW 1.4 km/h 3.2 km/h 13% 0 mm 758.0 W/m2
16:17 37.4 °C -15 °C 1002.6 hPa WNW 11.1 km/h 22.5 km/h 3% 0 mm 640.0 W/m2
16:27 37.6 °C -14.8 °C 1002.3 hPa WNW 16.3 km/h 19.3 km/h 3% 0 mm 591.0 W/m2
16:48 37.8 °C -19.5 °C 1001.9 hPa WNW 27.4 km/h 29 km/h 2% 0 mm 506.0 W/m2
17:07 37.4 °C -19.8 °C 1001.9 hPa WNW 6.4 km/h 29 km/h 2% 0 mm 271.0 W/m2
17:20 37 °C -27.8 °C 1001.6 hPa West 13 km/h 20.9 km/h 1% 0 mm 258.0 W/m2
17:25 37.1 °C -27.7 °C 1001.6 hPa WNW 13 km/h 29 km/h 1% 0 mm 322.0 W/m2
17:34 37.3 °C -19.8 °C 1001.9 hPa WNW 17.7 km/h 29 km/h 2% 0 mm 193.0 W/m2
19:03 31.1 °C -0.6 °C 1003.9 hPa SW 20.9 km/h 30.6 km/h 13% 0 mm 19.0 W/m2
19:18 30.5 °C 0 °C 1003.9 hPa SSW 22.7 km/h 24.1 km/h 14% 0 mm 0.0 W/m2
19:54 29.6 °C 0.2 °C 1004.6 hPa SSW 17.7 km/h 19.3 km/h 15% 0 mm 0.0 W/m2
20:04 29.1 °C 0.7 °C 1005 hPa SSW 16.3 km/h 17.7 km/h 16% 0 mm 0.0 W/m2
20:34 28.3 °C 0.1 °C 1005.3 hPa SSW 16.3 km/h 19.3 km/h 16% 0 mm 0.0 W/m2
21:02 27.7 °C -0.4 °C 1005.6 hPa SSW 14.3 km/h 17.7 km/h 16% 0 mm 0.0 W/m2
21:24 26.9 °C -1 °C 1006 hPa SSW 6.4 km/h 12.9 km/h 16% 0 mm 0.0 W/m2
21:45 26.6 °C -0.5 °C 1006 hPa SSW 7.9 km/h 14.5 km/h 17% 0 mm 0.0 W/m2
22:00 25.8 °C -1.1 °C 1006.3 hPa SSW 11.1 km/h 14.5 km/h 17% 0 mm 0.0 W/m2
22:15 25.5 °C -0.6 °C 1006.7 hPa SSW 4.7 km/h 6.4 km/h 18% 0 mm 0.0 W/m2
22:25 25.3 °C -1.5 °C 1007 hPa SSW 6.4 km/h 8 km/h 17% 0 mm 0.0 W/m2
22:53 25 °C -2.6 °C 1007 hPa SSW 11.1 km/h 16.1 km/h 16% 0 mm 0.0 W/m2
Canyon Roadhouse, Fishriver Canyon, Namibia
Compliments of Weather Underground - 2 mb